Time;durP1;ratioP1;P1;durP2;ratioP2;P2;SDS_P1;SDS_P2;PMS_P1;PMS_P2;Temp;Humidity;BMP_temperature;BMP_pressure;BME280_temperature;BME280_humidity;BME280_pressure;Samples;Min_cycle;Max_cycle;Signal;HPM_P1;HPM_P2
2023/04/04 00:01:12;;;;;;;6.15;2.10;;;;;;;;;;5008071;28;20113;-71
2023/04/04 00:03:38;;;;;;;4.05;2.03;;;;;;;;;;5007705;28;20468;-71
2023/04/04 00:06:03;;;;;;;4.18;2.17;;;;;;;;;;5005709;28;20041;-71
2023/04/04 00:08:29;;;;;;;2.95;1.70;;;;;;;;;;5015912;28;20038;-71
2023/04/04 00:10:58;;;;;;;10.55;2.35;;;;;;;;;;5025007;28;20037;-71
2023/04/04 00:13:25;;;;;;;5.10;2.10;;;;;;;;;;5028824;28;20033;-71
2023/04/04 00:15:51;;;;;;;4.00;2.05;;;;;;;;;;5029392;28;20018;-71
2023/04/04 00:18:16;;;;;;;6.00;2.15;;;;;;;;;;5016119;28;20036;-71
2023/04/04 00:20:42;;;;;;;7.32;2.30;;;;;;;;;;5011592;28;20074;-71
2023/04/04 00:23:10;;;;;;;3.92;2.08;;;;;;;;;;5026347;28;20029;-71
2023/04/04 00:25:35;;;;;;;5.40;1.95;;;;;;;;;;5026996;28;20068;-71
2023/04/04 00:28:01;;;;;;;3.47;1.70;;;;;;;;;;5026982;28;20743;-71
2023/04/04 00:30:27;;;;;;;4.30;1.90;;;;;;;;;;5026729;28;20720;-71
2023/04/04 00:32:52;;;;;;;3.50;1.58;;;;;;;;;;5024948;28;20080;-71
2023/04/04 00:35:17;;;;;;;3.83;1.80;;;;;;;;;;5007140;28;20053;-71
2023/04/04 00:37:43;;;;;;;6.22;1.95;;;;;;;;;;5010782;28;20034;-71
2023/04/04 00:40:08;;;;;;;5.82;1.85;;;;;;;;;;5006948;28;20018;-72
2023/04/04 00:42:34;;;;;;;4.30;1.80;;;;;;;;;;5026328;28;20053;-71
2023/04/04 00:44:59;;;;;;;4.22;2.10;;;;;;;;;;5012790;28;20344;-71
2023/04/04 00:47:29;;;;;;;3.97;2.30;;;;;;;;;;5006683;28;20037;-71
2023/04/04 00:49:54;;;;;;;4.80;2.00;;;;;;;;;;4999840;28;20034;-71
2023/04/04 00:52:20;;;;;;;3.22;1.90;;;;;;;;;;5005493;28;20026;-71
2023/04/04 00:54:45;;;;;;;3.58;1.67;;;;;;;;;;5005749;28;20452;-71
2023/04/04 00:57:11;;;;;;;2.80;1.95;;;;;;;;;;4998770;28;20108;-71
2023/04/04 00:59:37;;;;;;;4.35;2.08;;;;;;;;;;5006257;28;20097;-71
2023/04/04 01:02:03;;;;;;;4.25;2.13;;;;;;;;;;5006136;28;20038;-71
2023/04/04 01:04:29;;;;;;;2.95;1.88;;;;;;;;;;5003202;28;20029;-71
2023/04/04 01:06:55;;;;;;;4.60;1.80;;;;;;;;;;4987147;28;20052;-71
2023/04/04 01:09:20;;;;;;;2.50;1.73;;;;;;;;;;4986611;28;20062;-71
2023/04/04 01:11:46;;;;;;;9.98;1.98;;;;;;;;;;4985978;28;20046;-71
2023/04/04 01:14:11;;;;;;;2.75;1.75;;;;;;;;;;4986705;28;20044;-71
2023/04/04 01:16:37;;;;;;;3.42;2.10;;;;;;;;;;4986253;28;20561;-71
2023/04/04 01:19:07;;;;;;;3.97;2.17;;;;;;;;;;4987270;28;20053;-71
2023/04/04 01:21:33;;;;;;;4.72;2.05;;;;;;;;;;4985281;28;20038;-71
2023/04/04 01:24:01;;;;;;;4.05;1.92;;;;;;;;;;4986324;28;20046;-71
2023/04/04 01:26:27;;;;;;;9.02;2.17;;;;;;;;;;4996801;28;20045;-71
2023/04/04 01:28:53;;;;;;;2.40;1.83;;;;;;;;;;5006327;28;20104;-71
2023/04/04 01:31:40;;;;;;;8.23;2.03;;;;;;;;;;5004336;28;20566;-71
2023/04/04 01:34:27;;;;;;;9.70;2.28;;;;;;;;;;5004515;28;20070;-71
2023/04/04 01:37:01;;;;;;;3.92;2.13;;;;;;;;;;5014868;28;20045;-71
2023/04/04 01:39:31;;;;;;;3.20;1.70;;;;;;;;;;5010795;28;20046;-71
2023/04/04 01:41:59;;;;;;;3.28;1.75;;;;;;;;;;5009677;28;20512;-71
2023/04/04 01:44:25;;;;;;;2.70;2.03;;;;;;;;;;5001746;28;20048;-71
2023/04/04 01:46:54;;;;;;;3.78;1.92;;;;;;;;;;5004710;28;20038;-71
2023/04/04 01:49:21;;;;;;;3.72;1.70;;;;;;;;;;5005103;28;20033;-71
2023/04/04 01:51:47;;;;;;;6.93;2.53;;;;;;;;;;5009822;28;20028;-71
2023/04/04 01:54:13;;;;;;;1.60;1.38;;;;;;;;;;5025137;28;20041;-71
2023/04/04 01:56:38;;;;;;;3.38;1.55;;;;;;;;;;5013874;28;20761;-71
2023/04/04 01:59:03;;;;;;;5.13;2.45;;;;;;;;;;4984764;28;20034;-71
2023/04/04 02:01:29;;;;;;;3.42;1.80;;;;;;;;;;5012465;28;20461;-71
2023/04/04 02:03:54;;;;;;;7.93;2.08;;;;;;;;;;5020679;28;20404;-71
2023/04/04 02:06:20;;;;;;;4.97;2.45;;;;;;;;;;5005677;28;20589;-71
2023/04/04 02:08:45;;;;;;;3.42;1.73;;;;;;;;;;5007216;28;20041;-71
2023/04/04 02:11:11;;;;;;;3.50;1.83;;;;;;;;;;5004243;28;20033;-71
2023/04/04 02:13:40;;;;;;;5.68;2.00;;;;;;;;;;5001641;28;20042;-71
2023/04/04 02:16:05;;;;;;;3.05;1.70;;;;;;;;;;5014169;28;20547;-71
2023/04/04 02:18:32;;;;;;;4.32;2.33;;;;;;;;;;5023768;28;20041;-71
2023/04/04 02:20:57;;;;;;;3.90;2.03;;;;;;;;;;5024669;28;20025;-71
2023/04/04 02:23:23;;;;;;;4.95;2.22;;;;;;;;;;5002391;28;20045;-71
2023/04/04 02:25:51;;;;;;;3.45;2.13;;;;;;;;;;5000938;28;20580;-72
2023/04/04 02:28:17;;;;;;;5.63;2.33;;;;;;;;;;4985563;28;20026;-71
2023/04/04 02:30:42;;;;;;;3.97;2.15;;;;;;;;;;4986884;28;20022;-71
2023/04/04 02:33:07;;;;;;;3.28;1.98;;;;;;;;;;5004353;28;20045;-71
2023/04/04 02:35:33;;;;;;;5.55;2.20;;;;;;;;;;5021409;28;20508;-71
2023/04/04 02:37:58;;;;;;;4.25;1.70;;;;;;;;;;4986574;28;20045;-71
2023/04/04 02:40:24;;;;;;;7.70;2.08;;;;;;;;;;4999891;28;20032;-71
2023/04/04 02:42:49;;;;;;;4.75;2.35;;;;;;;;;;5004345;28;20101;-71
2023/04/04 02:45:15;;;;;;;3.83;2.40;;;;;;;;;;5004875;28;20508;-71
2023/04/04 02:47:41;;;;;;;5.35;2.58;;;;;;;;;;5013592;28;20042;-71
2023/04/04 02:50:08;;;;;;;2.30;1.70;;;;;;;;;;5014016;28;20045;-71
2023/04/04 02:52:33;;;;;;;2.85;2.28;;;;;;;;;;5023136;28;20049;-71
2023/04/04 02:54:59;;;;;;;5.75;2.63;;;;;;;;;;5025113;28;20045;-71
2023/04/04 02:57:24;;;;;;;5.40;2.00;;;;;;;;;;5024342;28;20033;-71
2023/04/04 02:59:49;;;;;;;3.20;1.88;;;;;;;;;;5024977;28;20037;-71
2023/04/04 03:02:14;;;;;;;6.13;2.45;;;;;;;;;;5028916;28;20034;-71
2023/04/04 03:04:40;;;;;;;3.78;2.10;;;;;;;;;;5023433;28;20030;-71
2023/04/04 03:07:05;;;;;;;5.95;2.17;;;;;;;;;;5007772;28;20398;-71
2023/04/04 03:09:31;;;;;;;4.78;2.38;;;;;;;;;;5004242;28;20045;-71
2023/04/04 03:11:56;;;;;;;5.50;2.67;;;;;;;;;;5003905;28;20041;-71
2023/04/04 03:14:22;;;;;;;6.50;2.40;;;;;;;;;;5000765;28;20108;-71
2023/04/04 03:16:51;;;;;;;7.93;3.13;;;;;;;;;;5000566;28;20091;-71
2023/04/04 03:19:16;;;;;;;5.88;2.80;;;;;;;;;;5012883;28;20036;-71
2023/04/04 03:21:41;;;;;;;4.88;2.35;;;;;;;;;;5010907;28;20050;-71
2023/04/04 03:24:07;;;;;;;5.28;2.22;;;;;;;;;;5000550;28;20034;-71
2023/04/04 03:26:32;;;;;;;6.28;2.53;;;;;;;;;;5009185;28;20046;-71
2023/04/04 03:28:58;;;;;;;3.75;2.33;;;;;;;;;;5008266;28;20034;-71
2023/04/04 03:31:23;;;;;;;5.10;2.20;;;;;;;;;;5008992;28;20106;-71
2023/04/04 03:33:49;;;;;;;2.85;1.90;;;;;;;;;;4988788;28;20022;-71
2023/04/04 03:36:14;;;;;;;3.08;2.00;;;;;;;;;;4988243;28;20038;-71
2023/04/04 03:38:40;;;;;;;5.63;2.42;;;;;;;;;;5007261;28;20037;-71
2023/04/04 03:41:06;;;;;;;3.97;2.25;;;;;;;;;;5017273;28;20100;-71
2023/04/04 03:43:32;;;;;;;5.72;2.25;;;;;;;;;;5013189;28;20126;-71
2023/04/04 03:46:01;;;;;;;5.43;2.47;;;;;;;;;;5008096;28;20113;-71
2023/04/04 03:48:27;;;;;;;7.53;3.17;;;;;;;;;;5002597;28;20042;-71
2023/04/04 03:50:52;;;;;;;8.10;2.80;;;;;;;;;;4988304;28;20053;-71
2023/04/04 03:53:17;;;;;;;8.27;3.58;;;;;;;;;;4993712;28;20701;-71
2023/04/04 03:55:43;;;;;;;6.38;3.10;;;;;;;;;;5006505;28;20120;-71
2023/04/04 03:58:08;;;;;;;6.15;3.20;;;;;;;;;;5008698;28;20036;-71
2023/04/04 04:00:33;;;;;;;5.68;3.25;;;;;;;;;;5006924;28;20410;-71
2023/04/04 04:02:59;;;;;;;8.23;2.72;;;;;;;;;;5007339;28;20121;-71
2023/04/04 04:05:25;;;;;;;6.03;2.90;;;;;;;;;;5007537;28;20109;-71
2023/04/04 04:07:51;;;;;;;6.65;3.20;;;;;;;;;;5007134;28;20029;-71
2023/04/04 04:10:17;;;;;;;4.03;2.53;;;;;;;;;;5006881;28;20050;-71
2023/04/04 04:12:43;;;;;;;8.10;2.55;;;;;;;;;;5007488;28;20096;-71
2023/04/04 04:15:09;;;;;;;4.65;2.60;;;;;;;;;;5007332;28;20163;-71
2023/04/04 04:17:38;;;;;;;4.38;3.00;;;;;;;;;;5005921;28;20448;-71
2023/04/04 04:20:05;;;;;;;5.95;2.65;;;;;;;;;;5019733;28;20042;-71
2023/04/04 04:22:31;;;;;;;7.20;2.67;;;;;;;;;;5014149;28;20030;-71
2023/04/04 04:24:56;;;;;;;4.25;2.30;;;;;;;;;;5026130;28;20071;-71
2023/04/04 04:27:22;;;;;;;3.13;2.08;;;;;;;;;;5028254;28;20037;-71
2023/04/04 04:29:48;;;;;;;4.15;2.15;;;;;;;;;;5035074;28;20041;-71
2023/04/04 04:32:16;;;;;;;4.35;2.25;;;;;;;;;;5027863;28;20762;-71
2023/04/04 04:34:42;;;;;;;3.15;2.30;;;;;;;;;;5027325;28;20071;-71
2023/04/04 04:37:07;;;;;;;5.63;2.15;;;;;;;;;;5026694;28;20033;-71
2023/04/04 04:39:33;;;;;;;2.80;1.88;;;;;;;;;;5026854;28;20045;-71
2023/04/04 04:41:58;;;;;;;3.67;2.15;;;;;;;;;;5007759;28;20088;-71
2023/04/04 04:44:23;;;;;;;4.03;2.30;;;;;;;;;;5007181;28;20417;-71
2023/04/04 04:46:48;;;;;;;7.60;2.45;;;;;;;;;;5006827;28;20435;-71
2023/04/04 04:49:14;;;;;;;4.93;1.95;;;;;;;;;;5005426;28;20025;-71
2023/04/04 04:51:41;;;;;;;5.22;1.85;;;;;;;;;;5004644;28;20045;-72
2023/04/04 04:54:06;;;;;;;5.57;2.00;;;;;;;;;;5005970;28;20068;-71
2023/04/04 04:56:32;;;;;;;3.88;1.70;;;;;;;;;;5006838;28;20042;-71
2023/04/04 04:58:57;;;;;;;4.82;2.33;;;;;;;;;;5006812;28;20077;-71
2023/04/04 05:01:22;;;;;;;7.13;2.45;;;;;;;;;;5005150;28;20037;-71
2023/04/04 05:03:47;;;;;;;11.45;4.03;;;;;;;;;;5006713;28;20493;-71
2023/04/04 05:06:13;;;;;;;6.15;2.78;;;;;;;;;;5005849;28;20056;-71
2023/04/04 05:08:38;;;;;;;7.60;2.65;;;;;;;;;;5006426;28;20076;-71
2023/04/04 05:11:03;;;;;;;6.90;3.10;;;;;;;;;;5005180;28;20245;-71
2023/04/04 05:13:29;;;;;;;7.63;3.08;;;;;;;;;;5006600;28;20109;-71
2023/04/04 05:15:54;;;;;;;9.52;3.72;;;;;;;;;;5002674;28;20017;-71
2023/04/04 05:18:19;;;;;;;10.20;4.72;;;;;;;;;;5006607;28;20445;-71
2023/04/04 05:20:50;;;;;;;18.70;6.72;;;;;;;;;;5007252;28;20037;-71
2023/04/04 05:23:16;;;;;;;18.83;5.38;;;;;;;;;;5007079;28;20535;-71
2023/04/04 05:25:41;;;;;;;10.82;5.13;;;;;;;;;;5006018;28;20040;-71
2023/04/04 05:28:07;;;;;;;13.30;5.70;;;;;;;;;;5002464;28;20030;-71
2023/04/04 05:30:33;;;;;;;12.52;4.60;;;;;;;;;;4996353;28;20042;-71
2023/04/04 05:32:58;;;;;;;11.63;4.85;;;;;;;;;;5002809;28;20049;-71
2023/04/04 05:35:24;;;;;;;10.80;4.13;;;;;;;;;;5006118;28;20029;-71
2023/04/04 05:37:50;;;;;;;6.20;3.55;;;;;;;;;;5006040;28;20116;-71
2023/04/04 05:40:15;;;;;;;8.13;3.22;;;;;;;;;;5006091;28;20108;-71
2023/04/04 05:42:41;;;;;;;5.40;2.97;;;;;;;;;;5004190;28;20049;-71
2023/04/04 05:45:07;;;;;;;7.15;3.15;;;;;;;;;;5004700;28;20065;-71
2023/04/04 05:47:33;;;;;;;6.00;3.00;;;;;;;;;;5006617;28;20065;-71
2023/04/04 05:49:58;;;;;;;5.45;2.45;;;;;;;;;;5010362;28;20069;-71
2023/04/04 05:52:23;;;;;;;5.82;2.40;;;;;;;;;;5015407;28;20021;-71
2023/04/04 05:54:49;;;;;;;5.28;3.08;;;;;;;;;;5005601;28;20053;-72
2023/04/04 05:57:15;;;;;;;8.48;3.20;;;;;;;;;;5019295;28;20037;-72
2023/04/04 05:59:41;;;;;;;7.10;3.30;;;;;;;;;;5025597;28;20041;-71
2023/04/04 06:02:07;;;;;;;6.80;3.20;;;;;;;;;;5017996;28;20041;-71
2023/04/04 06:04:32;;;;;;;6.35;3.42;;;;;;;;;;5011053;28;20061;-71
2023/04/04 06:06:58;;;;;;;9.20;3.65;;;;;;;;;;4984939;28;20068;-71
2023/04/04 06:09:23;;;;;;;5.97;3.13;;;;;;;;;;4985810;28;20044;-71
2023/04/04 06:11:48;;;;;;;5.20;2.85;;;;;;;;;;4984561;28;20049;-71
2023/04/04 06:14:14;;;;;;;7.53;3.15;;;;;;;;;;4985737;28;20766;-71
2023/04/04 06:16:39;;;;;;;6.35;3.13;;;;;;;;;;5005729;28;20039;-71
2023/04/04 06:19:05;;;;;;;5.82;3.42;;;;;;;;;;4999975;28;20022;-70
2023/04/04 06:21:30;;;;;;;5.78;3.10;;;;;;;;;;5004614;28;20030;-71
2023/04/04 06:23:56;;;;;;;10.50;4.03;;;;;;;;;;5015611;28;20033;-71
2023/04/04 06:26:21;;;;;;;6.22;3.50;;;;;;;;;;5008700;28;20030;-71
2023/04/04 06:28:50;;;;;;;6.45;2.97;;;;;;;;;;5005840;28;20034;-71
2023/04/04 06:31:16;;;;;;;5.75;2.95;;;;;;;;;;4999561;28;20037;-71
2023/04/04 06:33:42;;;;;;;7.28;4.15;;;;;;;;;;4992287;28;20049;-71
2023/04/04 06:36:08;;;;;;;5.75;3.50;;;;;;;;;;5006391;28;20053;-71
2023/04/04 06:38:33;;;;;;;7.03;3.45;;;;;;;;;;5018276;28;20071;-71
2023/04/04 06:40:58;;;;;;;7.72;2.70;;;;;;;;;;5012659;28;20034;-71
2023/04/04 06:43:24;;;;;;;4.60;2.70;;;;;;;;;;5005177;28;20022;-71
2023/04/04 06:45:49;;;;;;;11.27;2.80;;;;;;;;;;5002959;28;20022;-71
2023/04/04 06:48:15;;;;;;;5.28;2.85;;;;;;;;;;5004505;28;20068;-71
2023/04/04 06:50:40;;;;;;;6.88;2.70;;;;;;;;;;5003961;28;20509;-71
2023/04/04 06:53:06;;;;;;;8.73;3.03;;;;;;;;;;5004564;28;20038;-71
2023/04/04 06:55:33;;;;;;;7.97;3.35;;;;;;;;;;5020869;28;20026;-71
2023/04/04 06:57:58;;;;;;;9.15;4.75;;;;;;;;;;5023765;28;20711;-71
2023/04/04 07:00:24;;;;;;;10.43;4.28;;;;;;;;;;5003349;28;20042;-71
2023/04/04 07:02:57;;;;;;;6.85;3.45;;;;;;;;;;5004844;28;20038;-71
2023/04/04 07:05:23;;;;;;;10.50;2.60;;;;;;;;;;5003931;28;20125;-71
2023/04/04 07:07:53;;;;;;;6.75;2.83;;;;;;;;;;5002776;28;20109;-71
2023/04/04 07:10:18;;;;;;;5.30;3.35;;;;;;;;;;5004683;28;20076;-70
2023/04/04 07:12:44;;;;;;;5.53;2.70;;;;;;;;;;5019990;28;20053;-72
2023/04/04 07:15:09;;;;;;;6.65;3.33;;;;;;;;;;5017579;28;20052;-71
2023/04/04 07:17:39;;;;;;;6.93;2.63;;;;;;;;;;5008321;28;20420;-71
2023/04/04 07:20:06;;;;;;;4.13;2.63;;;;;;;;;;5004269;28;20029;-71
2023/04/04 07:22:31;;;;;;;9.43;2.72;;;;;;;;;;5004308;28;20117;-71
2023/04/04 07:24:57;;;;;;;5.00;2.72;;;;;;;;;;5002989;28;20109;-71
2023/04/04 07:27:22;;;;;;;5.35;2.80;;;;;;;;;;5004334;28;20100;-71
2023/04/04 07:29:47;;;;;;;6.32;2.45;;;;;;;;;;5003898;28;20210;-71
2023/04/04 07:32:13;;;;;;;8.05;3.42;;;;;;;;;;5003540;28;20065;-71
2023/04/04 07:34:38;;;;;;;5.40;2.90;;;;;;;;;;5002817;28;20037;-71
2023/04/04 07:37:03;;;;;;;6.28;3.03;;;;;;;;;;4998369;28;20030;-71
2023/04/04 07:39:29;;;;;;;4.88;2.40;;;;;;;;;;4982782;28;20039;-71
2023/04/04 07:41:54;;;;;;;5.32;2.47;;;;;;;;;;5004362;28;20117;-71
2023/04/04 07:44:19;;;;;;;5.00;2.35;;;;;;;;;;5003162;28;20117;-71
2023/04/04 07:46:45;;;;;;;5.50;2.90;;;;;;;;;;5003134;28;20038;-71
2023/04/04 07:49:11;;;;;;;5.70;2.63;;;;;;;;;;5004130;28;20453;-71
2023/04/04 07:51:38;;;;;;;5.40;2.63;;;;;;;;;;5002930;28;20037;-71
2023/04/04 07:54:04;;;;;;;5.80;2.45;;;;;;;;;;5003049;28;20053;-71
2023/04/04 07:56:29;;;;;;;6.35;2.58;;;;;;;;;;5003181;28;20034;-71
2023/04/04 07:58:55;;;;;;;8.40;2.75;;;;;;;;;;5002129;28;20061;-71
2023/04/04 08:01:20;;;;;;;5.75;2.45;;;;;;;;;;5002780;28;20053;-71
2023/04/04 08:03:46;;;;;;;9.48;2.92;;;;;;;;;;5002014;28;20026;-71
2023/04/04 08:06:11;;;;;;;8.13;2.78;;;;;;;;;;5003220;28;20267;-71
2023/04/04 08:08:37;;;;;;;7.40;2.40;;;;;;;;;;5003967;28;20037;-71
2023/04/04 08:11:02;;;;;;;7.07;2.70;;;;;;;;;;5003250;28;20500;-71
2023/04/04 08:13:27;;;;;;;4.40;2.35;;;;;;;;;;5006734;28;20521;-71
2023/04/04 08:15:53;;;;;;;5.07;2.45;;;;;;;;;;5005659;28;20068;-71
2023/04/04 08:18:18;;;;;;;5.80;2.25;;;;;;;;;;5001574;28;20036;-71
2023/04/04 08:20:45;;;;;;;4.15;1.88;;;;;;;;;;4995738;28;20236;-71
2023/04/04 08:23:11;;;;;;;6.18;2.25;;;;;;;;;;5018056;28;20040;-71
2023/04/04 08:25:38;;;;;;;8.57;2.70;;;;;;;;;;5026299;28;20041;-71
2023/04/04 08:28:04;;;;;;;7.38;2.95;;;;;;;;;;5019011;28;20056;-71
2023/04/04 08:30:29;;;;;;;7.82;2.60;;;;;;;;;;5026446;28;20041;-71
2023/04/04 08:32:55;;;;;;;8.38;2.75;;;;;;;;;;5027587;28;20462;-71
2023/04/04 08:35:20;;;;;;;6.90;2.25;;;;;;;;;;5026011;28;20117;-71
2023/04/04 08:37:46;;;;;;;4.07;2.15;;;;;;;;;;5034838;28;20038;-71
2023/04/04 08:40:12;;;;;;;5.90;2.92;;;;;;;;;;5029250;28;20037;-71
2023/04/04 08:42:40;;;;;;;3.85;1.92;;;;;;;;;;5025339;28;20068;-71
2023/04/04 08:45:08;;;;;;;4.13;2.03;;;;;;;;;;5016694;28;20069;-71
2023/04/04 08:47:35;;;;;;;5.90;2.50;;;;;;;;;;5002986;28;20042;-71
2023/04/04 08:50:06;;;;;;;3.60;1.73;;;;;;;;;;5006155;28;20030;-71
2023/04/04 08:52:33;;;;;;;8.23;2.90;;;;;;;;;;5005591;28;20030;-71
2023/04/04 08:54:59;;;;;;;4.05;2.25;;;;;;;;;;4985503;28;20038;-71
2023/04/04 08:57:24;;;;;;;9.18;2.80;;;;;;;;;;4986725;28;20437;-71
2023/04/04 08:59:50;;;;;;;5.65;2.35;;;;;;;;;;4985056;28;20513;-71
2023/04/04 09:02:27;;;;;;;3.75;2.30;;;;;;;;;;4985866;28;20134;-71
2023/04/04 09:04:55;;;;;;;4.68;2.25;;;;;;;;;;4998806;28;20121;-71
2023/04/04 09:07:21;;;;;;;5.80;2.80;;;;;;;;;;5004337;28;20026;-71
2023/04/04 09:09:48;;;;;;;4.75;2.45;;;;;;;;;;5018469;28;20106;-71
2023/04/04 09:12:14;;;;;;;4.38;2.72;;;;;;;;;;5024818;28;20537;-71
2023/04/04 09:14:42;;;;;;;5.53;2.75;;;;;;;;;;5013648;28;20041;-71
2023/04/04 09:17:09;;;;;;;6.60;2.75;;;;;;;;;;5010206;28;20096;-71
2023/04/04 09:19:36;;;;;;;6.93;3.00;;;;;;;;;;5009410;28;20116;-71
2023/04/04 09:22:01;;;;;;;5.43;2.85;;;;;;;;;;5004588;28;20117;-70
2023/04/04 09:24:40;;;;;;;7.60;3.10;;;;;;;;;;4998850;28;20133;-70
2023/04/04 09:27:09;;;;;;;10.38;4.03;;;;;;;;;;4993800;28;20034;-71
2023/04/04 09:29:37;;;;;;;4.78;2.33;;;;;;;;;;4994182;28;20069;-70
2023/04/04 09:32:03;;;;;;;5.65;2.50;;;;;;;;;;5000897;28;20916;-70
2023/04/04 09:34:29;;;;;;;7.07;3.20;;;;;;;;;;5005559;28;20049;-70
2023/04/04 09:36:55;;;;;;;6.35;3.22;;;;;;;;;;5005705;28;20030;-71
2023/04/04 09:39:22;;;;;;;5.53;3.25;;;;;;;;;;5002843;28;20073;-70
2023/04/04 09:41:48;;;;;;;4.47;2.60;;;;;;;;;;5005076;28;20038;-70
2023/04/04 09:44:15;;;;;;;6.70;3.08;;;;;;;;;;5004553;28;20041;-70
2023/04/04 09:46:40;;;;;;;5.55;2.85;;;;;;;;;;5005122;28;20540;-70
2023/04/04 09:49:10;;;;;;;8.52;3.30;;;;;;;;;;5005833;28;20033;-70
2023/04/04 09:51:41;;;;;;;7.88;3.53;;;;;;;;;;5004966;28;20048;-70
2023/04/04 09:54:09;;;;;;;19.33;3.20;;;;;;;;;;5005511;28;20589;-70
2023/04/04 09:56:37;;;;;;;6.95;2.97;;;;;;;;;;5007749;28;20420;-70
2023/04/04 09:59:05;;;;;;;6.15;3.17;;;;;;;;;;5014772;28;20142;-70
2023/04/04 10:01:32;;;;;;;4.95;3.03;;;;;;;;;;5017048;28;20030;-70
2023/04/04 10:03:58;;;;;;;11.30;3.28;;;;;;;;;;5005422;28;20018;-70
2023/04/04 10:06:24;;;;;;;5.70;2.92;;;;;;;;;;5008805;28;20278;-70
2023/04/04 10:08:51;;;;;;;4.13;2.63;;;;;;;;;;5024632;28;20120;-70
2023/04/04 10:11:29;;;;;;;5.22;2.63;;;;;;;;;;5023783;28;20038;-70
2023/04/04 10:13:56;;;;;;;6.93;3.00;;;;;;;;;;5024195;28;20116;-70
2023/04/04 10:16:23;;;;;;;3.60;2.58;;;;;;;;;;5023695;28;20029;-70
2023/04/04 10:18:48;;;;;;;4.97;2.47;;;;;;;;;;5005296;28;20025;-70
2023/04/04 10:21:15;;;;;;;4.43;2.35;;;;;;;;;;5004220;28;20187;-71
2023/04/04 10:23:41;;;;;;;4.57;2.50;;;;;;;;;;5005242;28;20092;-70
2023/04/04 10:26:06;;;;;;;4.88;2.70;;;;;;;;;;5005938;28;20033;-70
2023/04/04 10:28:33;;;;;;;12.88;2.90;;;;;;;;;;5003285;28;20403;-70
2023/04/04 10:31:23;;;;;;;6.47;3.20;;;;;;;;;;5007837;28;20032;-70
2023/04/04 10:34:11;;;;;;;6.43;3.30;;;;;;;;;;5022912;28;20041;-70
2023/04/04 10:37:06;;;;;;;7.35;2.90;;;;;;;;;;5023727;28;20530;-71
2023/04/04 10:39:35;;;;;;;4.78;2.80;;;;;;;;;;5017089;28;20417;-70
2023/04/04 10:42:04;;;;;;;4.95;2.45;;;;;;;;;;4991456;28;20061;-70
2023/04/04 10:44:37;;;;;;;3.80;1.83;;;;;;;;;;5001268;28;20634;-70
2023/04/04 10:47:13;;;;;;;3.78;2.22;;;;;;;;;;4996235;28;20048;-70
2023/04/04 10:49:39;;;;;;;3.97;2.40;;;;;;;;;;4996872;28;20735;-70
2023/04/04 10:52:05;;;;;;;4.40;2.25;;;;;;;;;;4996237;28;20117;-70
2023/04/04 10:54:31;;;;;;;4.40;2.22;;;;;;;;;;5001960;28;20603;-70
2023/04/04 10:57:00;;;;;;;3.30;1.73;;;;;;;;;;5003893;28;20048;-71
2023/04/04 10:59:25;;;;;;;4.53;2.40;;;;;;;;;;4990473;28;20066;-70
2023/04/04 11:01:57;;;;;;;4.70;2.70;;;;;;;;;;4984569;28;20089;-71
2023/04/04 11:04:33;;;;;;;4.38;2.50;;;;;;;;;;4993415;28;20032;-71
2023/04/04 11:07:13;;;;;;;5.53;2.60;;;;;;;;;;5003983;28;20744;-71
2023/04/04 11:09:48;;;;;;;4.28;2.50;;;;;;;;;;5006345;28;20077;-70
2023/04/04 11:12:18;;;;;;;4.60;1.90;;;;;;;;;;5001888;28;20037;-71
2023/04/04 11:14:57;;;;;;;5.63;2.72;;;;;;;;;;4999898;28;20099;-72
2023/04/04 11:17:47;;;;;;;8.00;2.78;;;;;;;;;;4984344;28;20080;-71
2023/04/04 11:20:35;;;;;;;3.53;2.28;;;;;;;;;;4988955;28;20058;-71
2023/04/04 11:23:03;;;;;;;6.53;2.75;;;;;;;;;;4992733;28;20763;-71
2023/04/04 11:25:33;;;;;;;3.85;2.03;;;;;;;;;;4984939;28;20030;-71
2023/04/04 11:28:13;;;;;;;6.50;2.53;;;;;;;;;;4994796;28;20038;-71
2023/04/04 11:30:47;;;;;;;4.90;2.72;;;;;;;;;;5010561;28;20042;-71
2023/04/04 11:33:23;;;;;;;9.40;2.90;;;;;;;;;;5014601;28;20080;-71
2023/04/04 11:35:49;;;;;;;9.98;2.78;;;;;;;;;;5022518;28;20128;-71
2023/04/04 11:38:16;;;;;;;6.18;3.05;;;;;;;;;;5002693;28;20121;-71
2023/04/04 11:40:51;;;;;;;5.88;2.50;;;;;;;;;;4997490;28;20044;-70
2023/04/04 11:43:19;;;;;;;4.47;2.65;;;;;;;;;;4996219;28;20032;-71
2023/04/04 11:45:45;;;;;;;3.50;2.22;;;;;;;;;;4995820;28;20058;-71
2023/04/04 11:48:13;;;;;;;5.80;3.22;;;;;;;;;;5006631;28;20052;-71
2023/04/04 11:50:40;;;;;;;3.45;2.05;;;;;;;;;;5003821;28;20125;-71
2023/04/04 11:53:07;;;;;;;5.70;3.25;;;;;;;;;;5004514;28;20564;-72
2023/04/04 11:55:38;;;;;;;4.50;2.42;;;;;;;;;;5008029;28;20042;-71
2023/04/04 11:58:14;;;;;;;5.03;2.95;;;;;;;;;;5009596;28;20117;-71
2023/04/04 12:00:40;;;;;;;4.72;2.15;;;;;;;;;;5005715;28;20742;-71
2023/04/04 12:03:10;;;;;;;4.93;2.88;;;;;;;;;;4997242;28;20037;-71
2023/04/04 12:05:36;;;;;;;5.97;2.90;;;;;;;;;;5003715;28;20048;-71
2023/04/04 12:08:03;;;;;;;5.78;2.90;;;;;;;;;;5001874;28;20038;-70
2023/04/04 12:10:36;;;;;;;7.18;3.75;;;;;;;;;;4996277;28;20060;-71
2023/04/04 12:13:06;;;;;;;4.50;2.30;;;;;;;;;;4994043;28;20044;-71
2023/04/04 12:15:33;;;;;;;4.95;2.63;;;;;;;;;;5002510;28;20060;-72
2023/04/04 12:17:58;;;;;;;5.18;2.25;;;;;;;;;;5000888;28;20042;-71
2023/04/04 12:20:24;;;;;;;4.85;2.50;;;;;;;;;;5005138;28;20767;-71
2023/04/04 12:22:50;;;;;;;5.75;2.72;;;;;;;;;;5005783;28;20120;-72
2023/04/04 12:25:18;;;;;;;3.67;2.05;;;;;;;;;;5003931;28;20118;-72
2023/04/04 12:27:44;;;;;;;8.95;2.67;;;;;;;;;;5003853;28;20095;-72
2023/04/04 12:30:14;;;;;;;5.65;2.83;;;;;;;;;;5004322;28;20091;-72
2023/04/04 12:32:41;;;;;;;4.70;2.60;;;;;;;;;;5004463;28;20125;-72
2023/04/04 12:35:09;;;;;;;7.53;2.60;;;;;;;;;;5003306;28;20042;-72
2023/04/04 12:37:35;;;;;;;8.48;3.00;;;;;;;;;;5004716;28;20045;-72
2023/04/04 12:40:01;;;;;;;4.57;2.58;;;;;;;;;;5007020;28;20026;-73
2023/04/04 12:42:30;;;;;;;4.28;2.42;;;;;;;;;;5011664;28;20045;-72
2023/04/04 12:44:56;;;;;;;6.72;3.03;;;;;;;;;;5014249;28;20067;-71
2023/04/04 12:47:23;;;;;;;7.65;2.50;;;;;;;;;;5007538;28;20045;-72
2023/04/04 12:49:52;;;;;;;5.55;2.38;;;;;;;;;;5005319;28;20079;-72
2023/04/04 12:52:26;;;;;;;5.25;2.30;;;;;;;;;;5005410;28;20025;-72
2023/04/04 12:54:52;;;;;;;4.75;2.45;;;;;;;;;;5002450;28;20030;-72
2023/04/04 12:57:23;;;;;;;6.43;2.80;;;;;;;;;;5001603;28;20079;-73
2023/04/04 12:59:49;;;;;;;5.15;2.80;;;;;;;;;;5004179;28;20045;-72
2023/04/04 13:02:17;;;;;;;4.22;2.70;;;;;;;;;;5002682;28;20038;-70
2023/04/04 13:04:48;;;;;;;7.00;2.95;;;;;;;;;;5004247;28;20421;-71
2023/04/04 13:07:42;;;;;;;5.55;2.33;;;;;;;;;;5004700;28;20033;-70
2023/04/04 13:10:09;;;;;;;4.28;2.38;;;;;;;;;;5001082;28;20137;-70
2023/04/04 13:12:55;;;;;;;9.40;4.65;;;;;;;;;;5003364;28;20775;-70
2023/04/04 13:15:21;;;;;;;4.18;2.40;;;;;;;;;;5004401;28;20129;-70
2023/04/04 13:17:48;;;;;;;7.35;2.70;;;;;;;;;;5003713;28;20124;-70
2023/04/04 13:20:16;;;;;;;7.47;2.55;;;;;;;;;;5004031;28;20707;-71
2023/04/04 13:22:42;;;;;;;5.93;2.80;;;;;;;;;;5006265;28;20038;-71
2023/04/04 13:25:09;;;;;;;4.25;2.40;;;;;;;;;;5003134;28;20040;-70
2023/04/04 13:27:35;;;;;;;5.65;2.20;;;;;;;;;;5003840;28;20111;-70
2023/04/04 13:30:02;;;;;;;4.88;2.63;;;;;;;;;;5000408;28;20034;-70
2023/04/04 13:32:27;;;;;;;7.00;2.70;;;;;;;;;;5003280;28;20658;-70
2023/04/04 13:34:53;;;;;;;6.13;2.80;;;;;;;;;;5004444;28;20038;-69
2023/04/04 13:37:19;;;;;;;4.82;2.58;;;;;;;;;;5002365;28;20124;-69
2023/04/04 13:39:44;;;;;;;6.22;3.00;;;;;;;;;;5004109;28;20029;-70
2023/04/04 13:42:10;;;;;;;7.72;3.28;;;;;;;;;;5002629;28;20450;-69
2023/04/04 13:44:35;;;;;;;7.03;3.25;;;;;;;;;;5004208;28;20042;-70
2023/04/04 13:47:01;;;;;;;4.90;2.92;;;;;;;;;;5006745;28;20125;-70
2023/04/04 13:49:27;;;;;;;3.45;2.42;;;;;;;;;;5004392;28;20104;-72
2023/04/04 13:51:52;;;;;;;4.07;2.50;;;;;;;;;;5003853;28;20457;-69
2023/04/04 13:54:17;;;;;;;4.75;2.95;;;;;;;;;;5006947;28;20042;-70
2023/04/04 13:56:44;;;;;;;7.75;3.63;;;;;;;;;;5002005;28;20045;-69
2023/04/04 13:59:10;;;;;;;7.10;3.40;;;;;;;;;;5002688;28;20118;-70
2023/04/04 14:01:36;;;;;;;7.28;3.80;;;;;;;;;;4996704;28;20819;-69
2023/04/04 14:04:01;;;;;;;9.85;2.90;;;;;;;;;;5005500;28;20041;-70
2023/04/04 14:06:27;;;;;;;9.30;3.08;;;;;;;;;;5012537;28;20049;-71
2023/04/04 14:08:52;;;;;;;13.73;3.92;;;;;;;;;;5006714;28;20093;-71
2023/04/04 14:11:18;;;;;;;7.00;3.50;;;;;;;;;;5004096;28;20084;-72
2023/04/04 14:13:44;;;;;;;5.95;3.40;;;;;;;;;;5002506;28;20146;-71
2023/04/04 14:16:10;;;;;;;5.80;3.10;;;;;;;;;;5004003;28;20492;-71
2023/04/04 14:18:36;;;;;;;6.35;3.60;;;;;;;;;;5004733;28;20533;-71
2023/04/04 14:21:01;;;;;;;7.00;3.60;;;;;;;;;;5004341;28;20045;-71
2023/04/04 14:23:29;;;;;;;6.25;3.65;;;;;;;;;;5004542;28;20487;-70
2023/04/04 14:25:54;;;;;;;7.07;3.88;;;;;;;;;;5010819;28;20543;-70
2023/04/04 14:28:20;;;;;;;9.27;3.78;;;;;;;;;;5014625;28;20025;-70
2023/04/04 14:30:45;;;;;;;9.40;4.30;;;;;;;;;;5006859;28;20029;-71
2023/04/04 14:33:10;;;;;;;7.40;3.80;;;;;;;;;;5013362;28;20083;-71
2023/04/04 14:35:36;;;;;;;8.68;3.83;;;;;;;;;;5001184;28;20061;-71
2023/04/04 14:38:01;;;;;;;6.35;3.80;;;;;;;;;;5002759;28;20030;-71
2023/04/04 14:40:27;;;;;;;8.27;3.83;;;;;;;;;;5003749;28;20057;-71
2023/04/04 14:42:53;;;;;;;8.07;4.15;;;;;;;;;;5003546;28;20029;-70